Terminal Aerodrome Forecast
Issued by NWS Rapid City, SD

Home | Current Version | Previous Version | Text Only | Print | Product List | Glossary Off
Versions: 1 2 3 4 5 6 7 8 9 10 11 12 13 14 15 16 17 18

000
FTUS43 KUNR 230950 AAA
TAFRAP
TAF AMD
KRAP 230950Z 2310/2406 05009KT P6SM SCT015 BKN050
     FM231100 05007KT P6SM BKN015 BKN050
     FM231600 18013KT P6SM BKN150=

USA.gov is the U.S. government's official web portal to all federal, state and local government web resources and services.